sensor_id;sensor_type;location;lat;lon;timestamp;pressure;altitude;pressure_sealevel;temperature;humidity
41531;BME280;58990;46.284;13.126;2022-11-20T00:01:40;98434.16;;;10.03;45.57
41531;BME280;58990;46.284;13.126;2022-11-20T00:04:06;98425.50;;;10.03;46.22
41531;BME280;58990;46.284;13.126;2022-11-20T00:06:31;98426.06;;;9.98;46.35
41531;BME280;58990;46.284;13.126;2022-11-20T00:08:58;98427.69;;;9.99;46.18
41531;BME280;58990;46.284;13.126;2022-11-20T00:11:27;98422.03;;;10.02;45.92
41531;BME280;58990;46.284;13.126;2022-11-20T00:13:55;98436.97;;;10.02;46.43
41531;BME280;58990;46.284;13.126;2022-11-20T00:16:24;98434.16;;;10.03;46.30
41531;BME280;58990;46.284;13.126;2022-11-20T00:18:50;98439.41;;;10.03;47.21
41531;BME280;58990;46.284;13.126;2022-11-20T00:21:21;98436.56;;;9.98;46.60
41531;BME280;58990;46.284;13.126;2022-11-20T00:23:49;98436.56;;;9.98;46.39
41531;BME280;58990;46.284;13.126;2022-11-20T00:26:19;98442.59;;;9.99;46.35
41531;BME280;58990;46.284;13.126;2022-11-20T00:28:50;98446.00;;;9.92;46.42
41531;BME280;58990;46.284;13.126;2022-11-20T00:31:16;98450.44;;;9.99;46.79
41531;BME280;58990;46.284;13.126;2022-11-20T00:33:42;98450.66;;;9.97;46.43
41531;BME280;58990;46.284;13.126;2022-11-20T00:36:10;98448.44;;;9.94;46.89
41531;BME280;58990;46.284;13.126;2022-11-20T00:38:37;98454.66;;;9.93;46.47
41531;BME280;58990;46.284;13.126;2022-11-20T00:41:08;98456.28;;;9.94;46.35
41531;BME280;58990;46.284;13.126;2022-11-20T00:43:33;98467.19;;;9.91;46.82
41531;BME280;58990;46.284;13.126;2022-11-20T00:46:06;98471.66;;;10.04;46.20
41531;BME280;58990;46.284;13.126;2022-11-20T00:48:32;98470.63;;;9.98;46.60
41531;BME280;58990;46.284;13.126;2022-11-20T00:50:58;98464.56;;;9.91;46.89
41531;BME280;58990;46.284;13.126;2022-11-20T00:53:24;98464.34;;;9.92;46.50
41531;BME280;58990;46.284;13.126;2022-11-20T00:56:01;98464.78;;;9.96;46.10
41531;BME280;58990;46.284;13.126;2022-11-20T00:58:34;98464.78;;;9.96;46.18
41531;BME280;58990;46.284;13.126;2022-11-20T01:01:02;98475.66;;;10.00;46.00
41531;BME280;58990;46.284;13.126;2022-11-20T01:03:31;98480.88;;;9.93;46.55
41531;BME280;58990;46.284;13.126;2022-11-20T01:06:03;98485.31;;;9.92;46.61
41531;BME280;58990;46.284;13.126;2022-11-20T01:08:30;98490.56;;;9.92;46.41
41531;BME280;58990;46.284;13.126;2022-11-20T01:11:01;98492.00;;;9.95;46.86
41531;BME280;58990;46.284;13.126;2022-11-20T01:13:27;98487.94;;;9.92;46.10
41531;BME280;58990;46.284;13.126;2022-11-20T01:16:13;98490.38;;;9.94;46.42
41531;BME280;58990;46.284;13.126;2022-11-20T01:18:41;98475.06;;;9.98;46.22
41531;BME280;58990;46.284;13.126;2022-11-20T01:21:11;98480.09;;;9.92;45.88
41531;BME280;58990;46.284;13.126;2022-11-20T01:23:39;98476.47;;;9.93;45.55
41531;BME280;58990;46.284;13.126;2022-11-20T01:26:10;98479.72;;;10.02;45.24
41531;BME280;58990;46.284;13.126;2022-11-20T01:28:37;98476.91;;;10.04;45.98
41531;BME280;58990;46.284;13.126;2022-11-20T01:31:15;98490.59;;;9.99;45.05
41531;BME280;58990;46.284;13.126;2022-11-20T01:33:41;98482.94;;;9.98;45.73
41531;BME280;58990;46.284;13.126;2022-11-20T01:36:08;98486.59;;;10.03;45.55
41531;BME280;58990;46.284;13.126;2022-11-20T01:38:33;98490.03;;;10.10;45.70
41531;BME280;58990;46.284;13.126;2022-11-20T01:40:59;98487.81;;;10.07;44.65
41531;BME280;58990;46.284;13.126;2022-11-20T01:43:25;98481.75;;;10.07;45.31
41531;BME280;58990;46.284;13.126;2022-11-20T01:49:10;98480.13;;;9.99;45.75
41531;BME280;58990;46.284;13.126;2022-11-20T01:51:45;98481.50;;;9.95;44.73
41531;BME280;58990;46.284;13.126;2022-11-20T01:54:16;98480.13;;;9.99;45.59
41531;BME280;58990;46.284;13.126;2022-11-20T01:56:45;98488.19;;;9.98;45.23
41531;BME280;58990;46.284;13.126;2022-11-20T01:59:15;98478.50;;;9.98;44.78
41531;BME280;58990;46.284;13.126;2022-11-20T02:01:43;98474.25;;;9.97;45.11
41531;BME280;58990;46.284;13.126;2022-11-20T02:04:09;98472.06;;;10.01;44.43
41531;BME280;58990;46.284;13.126;2022-11-20T02:06:40;98489.19;;;10.03;44.93
41531;BME280;58990;46.284;13.126;2022-11-20T02:09:08;98480.56;;;10.09;44.68
41531;BME280;58990;46.284;13.126;2022-11-20T02:11:36;98482.16;;;10.10;44.78
41531;BME280;58990;46.284;13.126;2022-11-20T02:14:02;98490.63;;;10.06;45.24
41531;BME280;58990;46.284;13.126;2022-11-20T02:16:30;98482.56;;;10.07;45.33
41531;BME280;58990;46.284;13.126;2022-11-20T02:18:58;98489.44;;;10.08;44.52
41531;BME280;58990;46.284;13.126;2022-11-20T02:21:30;98481.34;;;10.03;44.86
41531;BME280;58990;46.284;13.126;2022-11-20T02:24:15;98482.94;;;9.98;45.14
41531;BME280;58990;46.284;13.126;2022-11-20T02:32:31;98496.25;;;9.96;44.94
41531;BME280;58990;46.284;13.126;2022-11-20T02:34:58;98498.22;;;9.94;45.26
41531;BME280;58990;46.284;13.126;2022-11-20T02:37:29;98507.09;;;9.93;44.88
41531;BME280;58990;46.284;13.126;2022-11-20T02:39:55;98498.22;;;9.94;44.78
41531;BME280;58990;46.284;13.126;2022-11-20T02:42:21;98493.38;;;9.91;44.45
41531;BME280;58990;46.284;13.126;2022-11-20T02:44:46;98497.00;;;9.90;44.60
41531;BME280;58990;46.284;13.126;2022-11-20T02:47:12;98504.63;;;9.85;44.81
41531;BME280;58990;46.284;13.126;2022-11-20T02:49:37;98513.94;;;9.87;44.30
41531;BME280;58990;46.284;13.126;2022-11-20T02:52:02;98513.13;;;9.87;44.43
41531;BME280;58990;46.284;13.126;2022-11-20T02:54:28;98514.53;;;9.83;44.61
41531;BME280;58990;46.284;13.126;2022-11-20T02:56:53;98526.91;;;9.67;50.24
41531;BME280;58990;46.284;13.126;2022-11-20T02:59:19;98532.56;;;9.36;54.38
41531;BME280;58990;46.284;13.126;2022-11-20T03:01:44;98530.53;;;9.09;55.62
41531;BME280;58990;46.284;13.126;2022-11-20T03:04:10;98532.63;;;8.92;56.86
41531;BME280;58990;46.284;13.126;2022-11-20T03:06:35;98524.97;;;8.91;58.63
41531;BME280;58990;46.284;13.126;2022-11-20T03:09:00;98523.09;;;8.85;59.47
41531;BME280;58990;46.284;13.126;2022-11-20T03:11:26;98531.03;;;8.55;61.64
41531;BME280;58990;46.284;13.126;2022-11-20T03:13:52;98525.56;;;8.35;62.62
41531;BME280;58990;46.284;13.126;2022-11-20T03:16:19;98518.78;;;8.40;60.12
41531;BME280;58990;46.284;13.126;2022-11-20T03:18:46;98515.66;;;8.45;60.94
41531;BME280;58990;46.284;13.126;2022-11-20T03:21:13;98523.31;;;8.47;59.80
41531;BME280;58990;46.284;13.126;2022-11-20T03:23:39;98520.13;;;8.51;57.61
41531;BME280;58990;46.284;13.126;2022-11-20T03:28:58;98507.44;;;8.33;60.26
41531;BME280;58990;46.284;13.126;2022-11-20T03:31:29;98521.53;;;8.17;61.83
41531;BME280;58990;46.284;13.126;2022-11-20T03:33:59;98519.78;;;7.88;62.59
41531;BME280;58990;46.284;13.126;2022-11-20T03:36:25;98517.25;;;7.95;62.18
41531;BME280;58990;46.284;13.126;2022-11-20T03:38:53;98519.84;;;7.95;62.61
41531;BME280;58990;46.284;13.126;2022-11-20T03:41:20;98524.06;;;8.11;59.24
41531;BME280;58990;46.284;13.126;2022-11-20T03:43:51;98519.91;;;8.16;62.15
41531;BME280;58990;46.284;13.126;2022-11-20T03:46:17;98522.44;;;8.09;61.17
41531;BME280;58990;46.284;13.126;2022-11-20T03:48:42;98522.63;;;8.23;54.81
41531;BME280;58990;46.284;13.126;2022-11-20T03:51:16;98533.59;;;8.33;56.52
41531;BME280;58990;46.284;13.126;2022-11-20T03:53:44;98529.47;;;8.24;59.20
41531;BME280;58990;46.284;13.126;2022-11-20T03:56:10;98535.94;;;8.28;57.25
41531;BME280;58990;46.284;13.126;2022-11-20T03:58:37;98541.56;;;8.25;59.44
41531;BME280;58990;46.284;13.126;2022-11-20T04:01:12;98526.59;;;8.19;61.20
41531;BME280;58990;46.284;13.126;2022-11-20T04:03:39;98529.69;;;8.07;60.87
41531;BME280;58990;46.284;13.126;2022-11-20T04:06:08;98525.16;;;8.01;61.79
41531;BME280;58990;46.284;13.126;2022-11-20T04:08:33;98524.28;;;7.94;56.73
41531;BME280;58990;46.284;13.126;2022-11-20T04:11:18;98518.38;;;8.37;51.01
41531;BME280;58990;46.284;13.126;2022-11-20T04:13:46;98522.88;;;8.28;58.10
41531;BME280;58990;46.284;13.126;2022-11-20T04:16:12;98521.84;;;8.44;55.64
41531;BME280;58990;46.284;13.126;2022-11-20T04:18:38;98524.06;;;8.62;52.22
41531;BME280;58990;46.284;13.126;2022-11-20T04:21:04;98505.94;;;8.82;52.61
41531;BME280;58990;46.284;13.126;2022-11-20T04:23:30;98522.94;;;8.71;53.37
41531;BME280;58990;46.284;13.126;2022-11-20T04:26:02;98524.44;;;8.59;56.06
41531;BME280;58990;46.284;13.126;2022-11-20T04:28:28;98520.03;;;8.45;55.21
41531;BME280;58990;46.284;13.126;2022-11-20T04:30:53;98521.59;;;8.75;48.38
41531;BME280;58990;46.284;13.126;2022-11-20T04:33:19;98533.94;;;8.60;56.23
41531;BME280;58990;46.284;13.126;2022-11-20T04:35:46;98537.94;;;8.26;57.71
41531;BME280;58990;46.284;13.126;2022-11-20T04:38:12;98544.09;;;8.03;58.20
41531;BME280;58990;46.284;13.126;2022-11-20T04:40:38;98538.78;;;8.12;53.80
41531;BME280;58990;46.284;13.126;2022-11-20T04:43:03;98531.25;;;8.38;51.57
41531;BME280;58990;46.284;13.126;2022-11-20T04:45:28;98522.34;;;8.69;49.57
41531;BME280;58990;46.284;13.126;2022-11-20T04:47:54;98528.94;;;8.87;48.46
41531;BME280;58990;46.284;13.126;2022-11-20T04:50:19;98519.78;;;8.98;48.59
41531;BME280;58990;46.284;13.126;2022-11-20T04:52:44;98519.84;;;9.04;47.81
41531;BME280;58990;46.284;13.126;2022-11-20T04:55:10;98519.06;;;9.11;47.53
41531;BME280;58990;46.284;13.126;2022-11-20T04:57:35;98520.69;;;9.12;47.67
41531;BME280;58990;46.284;13.126;2022-11-20T05:00:00;98517.94;;;9.20;47.76
41531;BME280;58990;46.284;13.126;2022-11-20T05:02:26;98526.88;;;9.32;46.75
41531;BME280;58990;46.284;13.126;2022-11-20T05:04:51;98528.31;;;9.35;46.40
41531;BME280;58990;46.284;13.126;2022-11-20T05:07:17;98525.25;;;9.31;47.29
41531;BME280;58990;46.284;13.126;2022-11-20T05:09:42;98534.38;;;9.35;47.46
41531;BME280;58990;46.284;13.126;2022-11-20T05:12:08;98533.16;;;9.38;47.84
41531;BME280;58990;46.284;13.126;2022-11-20T05:14:34;98522.88;;;9.36;47.30
41531;BME280;58990;46.284;13.126;2022-11-20T05:17:00;98535.00;;;9.37;47.09
41531;BME280;58990;46.284;13.126;2022-11-20T05:19:25;98551.47;;;8.88;49.00
41531;BME280;58990;46.284;13.126;2022-11-20T05:21:51;98548.94;;;8.73;54.31
41531;BME280;58990;46.284;13.126;2022-11-20T05:24:16;98551.16;;;8.54;52.15
41531;BME280;58990;46.284;13.126;2022-11-20T05:26:41;98553.16;;;8.37;56.46
41531;BME280;58990;46.284;13.126;2022-11-20T05:29:10;98562.22;;;8.05;58.55
41531;BME280;58990;46.284;13.126;2022-11-20T05:31:35;98570.25;;;8.03;59.21
41531;BME280;58990;46.284;13.126;2022-11-20T05:34:02;98565.00;;;7.88;57.40
41531;BME280;58990;46.284;13.126;2022-11-20T05:36:27;98565.44;;;7.92;58.09
41531;BME280;58990;46.284;13.126;2022-11-20T05:38:53;98567.72;;;7.95;59.14
41531;BME280;58990;46.284;13.126;2022-11-20T05:41:19;98573.28;;;7.92;58.37
41531;BME280;58990;46.284;13.126;2022-11-20T05:43:46;98576.00;;;7.84;58.59
41531;BME280;58990;46.284;13.126;2022-11-20T05:46:15;98580.50;;;7.90;59.95
41531;BME280;58990;46.284;13.126;2022-11-20T05:48:42;98579.31;;;7.63;62.48
41531;BME280;58990;46.284;13.126;2022-11-20T05:51:10;98585.56;;;7.38;65.16
41531;BME280;58990;46.284;13.126;2022-11-20T05:53:36;98585.47;;;7.32;66.35
41531;BME280;58990;46.284;13.126;2022-11-20T05:56:07;98591.09;;;7.20;67.66
41531;BME280;58990;46.284;13.126;2022-11-20T05:58:35;98588.78;;;7.02;66.87
41531;BME280;58990;46.284;13.126;2022-11-20T06:01:10;98596.66;;;7.17;67.14
41531;BME280;58990;46.284;13.126;2022-11-20T06:03:36;98590.28;;;7.20;67.04
41531;BME280;58990;46.284;13.126;2022-11-20T06:06:02;98596.91;;;7.07;68.94
41531;BME280;58990;46.284;13.126;2022-11-20T06:08:29;98602.97;;;7.23;61.92
41531;BME280;58990;46.284;13.126;2022-11-20T06:10:54;98598.84;;;7.52;61.12
41531;BME280;58990;46.284;13.126;2022-11-20T06:13:20;98598.59;;;7.77;61.21
41531;BME280;58990;46.284;13.126;2022-11-20T06:15:50;98612.47;;;7.77;61.65
41531;BME280;58990;46.284;13.126;2022-11-20T06:18:15;98625.78;;;7.67;62.03
41531;BME280;58990;46.284;13.126;2022-11-20T06:20:41;98618.22;;;7.57;63.32
41531;BME280;58990;46.284;13.126;2022-11-20T06:23:06;98614.66;;;7.50;63.23
41531;BME280;58990;46.284;13.126;2022-11-20T06:25:31;98616.84;;;7.47;63.38
41531;BME280;58990;46.284;13.126;2022-11-20T06:27:57;98621.69;;;7.50;60.41
41531;BME280;58990;46.284;13.126;2022-11-20T06:30:22;98623.78;;;7.54;59.66
41531;BME280;58990;46.284;13.126;2022-11-20T06:32:47;98630.72;;;7.62;58.97
41531;BME280;58990;46.284;13.126;2022-11-20T06:35:13;98636.06;;;7.69;58.94
41531;BME280;58990;46.284;13.126;2022-11-20T06:37:38;98641.16;;;7.62;60.07
41531;BME280;58990;46.284;13.126;2022-11-20T06:40:04;98641.88;;;7.56;60.32
41531;BME280;58990;46.284;13.126;2022-11-20T06:42:29;98647.44;;;7.53;59.90
41531;BME280;58990;46.284;13.126;2022-11-20T06:44:55;98657.78;;;7.46;63.57
41531;BME280;58990;46.284;13.126;2022-11-20T06:47:20;98665.56;;;7.31;65.98
41531;BME280;58990;46.284;13.126;2022-11-20T06:49:45;98671.88;;;7.14;68.93
41531;BME280;58990;46.284;13.126;2022-11-20T06:52:11;98669.78;;;7.09;69.21
41531;BME280;58990;46.284;13.126;2022-11-20T06:54:36;98667.53;;;7.06;68.06
41531;BME280;58990;46.284;13.126;2022-11-20T06:57:02;98682.41;;;6.97;70.04
41531;BME280;58990;46.284;13.126;2022-11-20T06:59:27;98685.63;;;7.07;69.83
41531;BME280;58990;46.284;13.126;2022-11-20T07:01:52;98685.72;;;6.91;70.98
41531;BME280;58990;46.284;13.126;2022-11-20T07:04:18;98684.09;;;6.90;70.64
41531;BME280;58990;46.284;13.126;2022-11-20T07:06:43;98684.75;;;6.84;70.93
41531;BME280;58990;46.284;13.126;2022-11-20T07:09:09;98699.25;;;6.86;70.40
41531;BME280;58990;46.284;13.126;2022-11-20T07:11:34;98696.31;;;7.21;68.69
41531;BME280;58990;46.284;13.126;2022-11-20T07:14:00;98696.00;;;8.00;64.86
41531;BME280;58990;46.284;13.126;2022-11-20T07:16:25;98701.69;;;8.04;64.51
41531;BME280;58990;46.284;13.126;2022-11-20T07:18:50;98704.09;;;7.90;64.80
41531;BME280;58990;46.284;13.126;2022-11-20T07:21:19;98708.81;;;7.72;66.37
41531;BME280;58990;46.284;13.126;2022-11-20T07:23:45;98713.84;;;7.58;67.28
41531;BME280;58990;46.284;13.126;2022-11-20T07:26:10;98721.50;;;7.37;67.47
41531;BME280;58990;46.284;13.126;2022-11-20T07:28:36;98722.06;;;7.24;67.21
41531;BME280;58990;46.284;13.126;2022-11-20T07:31:02;98721.31;;;7.38;65.46
41531;BME280;58990;46.284;13.126;2022-11-20T07:33:27;98730.75;;;7.39;65.37
41531;BME280;58990;46.284;13.126;2022-11-20T07:35:52;98730.44;;;7.43;65.07
41531;BME280;58990;46.284;13.126;2022-11-20T07:38:18;98739.13;;;7.58;64.63
41531;BME280;58990;46.284;13.126;2022-11-20T07:40:43;98745.31;;;7.65;63.86
41531;BME280;58990;46.284;13.126;2022-11-20T07:43:09;98754.31;;;7.63;64.17
41531;BME280;58990;46.284;13.126;2022-11-20T07:45:34;98756.09;;;7.62;64.39
41531;BME280;58990;46.284;13.126;2022-11-20T07:47:59;98765.34;;;7.41;66.69
41531;BME280;58990;46.284;13.126;2022-11-20T07:50:25;98762.97;;;7.32;68.07
41531;BME280;58990;46.284;13.126;2022-11-20T07:52:50;98780.78;;;7.51;66.77
41531;BME280;58990;46.284;13.126;2022-11-20T07:55:16;98772.41;;;7.64;65.84
41531;BME280;58990;46.284;13.126;2022-11-20T07:57:42;98775.63;;;7.89;64.48
41531;BME280;58990;46.284;13.126;2022-11-20T08:00:09;98773.50;;;7.93;58.60
41531;BME280;58990;46.284;13.126;2022-11-20T08:02:39;98779.16;;;8.20;62.23
41531;BME280;58990;46.284;13.126;2022-11-20T08:05:06;98782.69;;;8.27;63.09
41531;BME280;58990;46.284;13.126;2022-11-20T08:07:37;98798.84;;;8.31;62.48
41531;BME280;58990;46.284;13.126;2022-11-20T08:10:03;98798.25;;;8.44;61.00
41531;BME280;58990;46.284;13.126;2022-11-20T08:12:28;98800.44;;;8.70;59.86
41531;BME280;58990;46.284;13.126;2022-11-20T08:15:14;98796.47;;;9.04;59.69
41531;BME280;58990;46.284;13.126;2022-11-20T08:17:39;98805.94;;;9.20;56.09
41531;BME280;58990;46.284;13.126;2022-11-20T08:20:05;98800.53;;;9.80;52.96
41531;BME280;58990;46.284;13.126;2022-11-20T08:22:30;98804.09;;;10.37;49.81
41531;BME280;58990;46.284;13.126;2022-11-20T08:24:55;98800.94;;;10.48;47.04
41531;BME280;58990;46.284;13.126;2022-11-20T08:27:21;98806.00;;;10.50;50.59
41531;BME280;58990;46.284;13.126;2022-11-20T08:29:46;98799.19;;;10.55;47.90
41531;BME280;58990;46.284;13.126;2022-11-20T08:32:11;98812.50;;;11.99;45.20
41531;BME280;58990;46.284;13.126;2022-11-20T08:34:37;98809.47;;;12.49;45.30
41531;BME280;58990;46.284;13.126;2022-11-20T08:37:02;98810.13;;;12.24;45.96
41531;BME280;58990;46.284;13.126;2022-11-20T08:39:28;98816.16;;;12.11;46.10
41531;BME280;58990;46.284;13.126;2022-11-20T08:41:53;98822.66;;;11.34;49.12
41531;BME280;58990;46.284;13.126;2022-11-20T08:44:19;98831.97;;;11.50;47.95
41531;BME280;58990;46.284;13.126;2022-11-20T08:46:44;98826.03;;;13.87;43.44
41531;BME280;58990;46.284;13.126;2022-11-20T08:49:11;98814.91;;;18.81;33.20
41531;BME280;58990;46.284;13.126;2022-11-20T08:51:38;98828.13;;;20.94;28.22
41531;BME280;58990;46.284;13.126;2022-11-20T08:54:04;98826.88;;;23.34;25.41
41531;BME280;58990;46.284;13.126;2022-11-20T08:56:30;98828.22;;;23.81;23.81
41531;BME280;58990;46.284;13.126;2022-11-20T08:58:56;98839.84;;;24.06;23.05
41531;BME280;58990;46.284;13.126;2022-11-20T09:01:22;98840.47;;;25.10;21.68
41531;BME280;58990;46.284;13.126;2022-11-20T09:03:48;98840.47;;;25.34;22.30
41531;BME280;58990;46.284;13.126;2022-11-20T09:06:14;98843.63;;;25.80;20.48
41531;BME280;58990;46.284;13.126;2022-11-20T09:08:40;98852.59;;;24.83;20.91
41531;BME280;58990;46.284;13.126;2022-11-20T09:11:06;98855.63;;;24.42;20.54
41531;BME280;58990;46.284;13.126;2022-11-20T09:13:32;98850.03;;;22.94;24.35
41531;BME280;58990;46.284;13.126;2022-11-20T09:16:00;98855.97;;;22.18;23.60
41531;BME280;58990;46.284;13.126;2022-11-20T09:18:27;98851.59;;;23.71;22.95
41531;BME280;58990;46.284;13.126;2022-11-20T09:20:57;98851.25;;;23.82;22.71
41531;BME280;58990;46.284;13.126;2022-11-20T09:23:23;98853.56;;;23.49;22.78
41531;BME280;58990;46.284;13.126;2022-11-20T09:25:49;98848.53;;;24.86;21.08
41531;BME280;58990;46.284;13.126;2022-11-20T09:28:14;98855.75;;;22.46;22.64
41531;BME280;58990;46.284;13.126;2022-11-20T09:30:40;98857.69;;;23.26;24.37
41531;BME280;58990;46.284;13.126;2022-11-20T09:33:05;98852.19;;;24.02;22.66
41531;BME280;58990;46.284;13.126;2022-11-20T09:35:32;98852.69;;;23.64;22.55
41531;BME280;58990;46.284;13.126;2022-11-20T09:37:57;98853.28;;;25.62;20.78
41531;BME280;58990;46.284;13.126;2022-11-20T09:40:27;98854.22;;;24.21;23.25
41531;BME280;58990;46.284;13.126;2022-11-20T09:43:00;98849.03;;;24.00;22.38
41531;BME280;58990;46.284;13.126;2022-11-20T09:58:45;98841.31;;;26.25;19.78
41531;BME280;58990;46.284;13.126;2022-11-20T10:01:15;98840.44;;;26.30;20.10
41531;BME280;58990;46.284;13.126;2022-11-20T10:30:09;98820.22;;;23.71;23.92
41531;BME280;58990;46.284;13.126;2022-11-20T10:32:38;98823.34;;;23.83;24.72
41531;BME280;58990;46.284;13.126;2022-11-20T10:48:22;98826.22;;;24.91;23.46
41531;BME280;58990;46.284;13.126;2022-11-20T10:51:30;98821.50;;;25.26;22.80
41531;BME280;58990;46.284;13.126;2022-11-20T11:20:21;98809.31;;;20.31;30.14
41531;BME280;58990;46.284;13.126;2022-11-20T11:35:53;98796.16;;;20.14;29.86
41531;BME280;58990;46.284;13.126;2022-11-20T11:41:07;98796.13;;;18.48;32.86
41531;BME280;58990;46.284;13.126;2022-11-20T11:43:36;98791.91;;;16.98;36.02
41531;BME280;58990;46.284;13.126;2022-11-20T11:46:33;98791.16;;;18.01;35.01
41531;BME280;58990;46.284;13.126;2022-11-20T12:05:01;98797.22;;;17.56;35.90
41531;BME280;58990;46.284;13.126;2022-11-20T12:07:39;98797.97;;;17.10;35.94
41531;BME280;58990;46.284;13.126;2022-11-20T12:13:12;98808.03;;;15.04;40.54
41531;BME280;58990;46.284;13.126;2022-11-20T12:15:44;98799.31;;;15.83;40.11
41531;BME280;58990;46.284;13.126;2022-11-20T12:18:15;98800.28;;;16.00;38.50
41531;BME280;58990;46.284;13.126;2022-11-20T12:20:45;98801.06;;;15.40;39.82
41531;BME280;58990;46.284;13.126;2022-11-20T12:26:07;98799.28;;;14.66;42.09
41531;BME280;58990;46.284;13.126;2022-11-20T13:00:23;98790.97;;;12.96;45.18
41531;BME280;58990;46.284;13.126;2022-11-20T13:16:11;98773.69;;;13.13;44.59
41531;BME280;58990;46.284;13.126;2022-11-20T13:18:40;98768.50;;;12.87;46.59
41531;BME280;58990;46.284;13.126;2022-11-20T13:34:26;98766.13;;;12.65;46.77
41531;BME280;58990;46.284;13.126;2022-11-20T13:36:54;98766.56;;;12.49;46.74
41531;BME280;58990;46.284;13.126;2022-11-20T14:18:44;98754.00;;;11.70;47.73
41531;BME280;58990;46.284;13.126;2022-11-20T14:21:10;98754.78;;;11.64;48.13
41531;BME280;58990;46.284;13.126;2022-11-20T14:23:35;98756.44;;;11.78;49.07
41531;BME280;58990;46.284;13.126;2022-11-20T14:26:01;98765.34;;;11.77;49.10
41531;BME280;58990;46.284;13.126;2022-11-20T14:28:28;98764.13;;;11.73;49.30
41531;BME280;58990;46.284;13.126;2022-11-20T14:30:54;98764.91;;;11.74;49.57
41531;BME280;58990;46.284;13.126;2022-11-20T14:33:21;98764.47;;;11.43;50.01
41531;BME280;58990;46.284;13.126;2022-11-20T14:35:52;98759.63;;;11.40;50.97
41531;BME280;58990;46.284;13.126;2022-11-20T14:38:22;98760.38;;;11.34;50.86
41531;BME280;58990;46.284;13.126;2022-11-20T14:40:49;98758.53;;;11.28;50.24
41531;BME280;58990;46.284;13.126;2022-11-20T14:59:09;98757.25;;;11.10;52.03
41531;BME280;58990;46.284;13.126;2022-11-20T15:01:35;98766.31;;;11.01;51.13
41531;BME280;58990;46.284;13.126;2022-11-20T15:04:10;98767.34;;;11.00;51.55
41531;BME280;58990;46.284;13.126;2022-11-20T15:06:36;98773.53;;;10.86;51.55
41531;BME280;58990;46.284;13.126;2022-11-20T15:09:04;98772.13;;;10.90;52.38
41531;BME280;58990;46.284;13.126;2022-11-20T15:11:34;98777.59;;;10.88;52.27
41531;BME280;58990;46.284;13.126;2022-11-20T15:14:06;98771.22;;;10.69;52.65
41531;BME280;58990;46.284;13.126;2022-11-20T15:16:32;98775.84;;;10.67;53.24
41531;BME280;58990;46.284;13.126;2022-11-20T15:18:58;98779.25;;;10.61;53.80
41531;BME280;58990;46.284;13.126;2022-11-20T15:21:24;98777.38;;;10.55;54.92
41531;BME280;58990;46.284;13.126;2022-11-20T15:23:49;98770.16;;;10.57;55.76
41531;BME280;58990;46.284;13.126;2022-11-20T15:26:24;98774.69;;;10.20;57.10
41531;BME280;58990;46.284;13.126;2022-11-20T15:28:50;98783.19;;;10.22;57.49
41531;BME280;58990;46.284;13.126;2022-11-20T15:31:19;98784.72;;;10.09;57.94
41531;BME280;58990;46.284;13.126;2022-11-20T15:33:45;98787.81;;;9.98;58.54
41531;BME280;58990;46.284;13.126;2022-11-20T15:36:10;98788.94;;;9.89;58.17
41531;BME280;58990;46.284;13.126;2022-11-20T15:38:36;98790.31;;;9.63;59.11
41531;BME280;58990;46.284;13.126;2022-11-20T15:41:02;98795.06;;;9.53;59.45
41531;BME280;58990;46.284;13.126;2022-11-20T15:43:27;98800.75;;;9.41;60.43
41531;BME280;58990;46.284;13.126;2022-11-20T15:46:02;98802.22;;;9.29;61.11
41531;BME280;58990;46.284;13.126;2022-11-20T15:48:35;98810.47;;;9.26;61.40
41531;BME280;58990;46.284;13.126;2022-11-20T15:53:52;98806.25;;;8.95;63.54
41531;BME280;58990;46.284;13.126;2022-11-20T15:56:18;98810.31;;;8.83;63.83
41531;BME280;58990;46.284;13.126;2022-11-20T15:58:43;98811.28;;;8.67;64.31
41531;BME280;58990;46.284;13.126;2022-11-20T16:01:14;98813.06;;;8.66;64.67
41531;BME280;58990;46.284;13.126;2022-11-20T16:03:40;98812.63;;;8.63;64.53
41531;BME280;58990;46.284;13.126;2022-11-20T16:06:05;98817.03;;;8.24;65.96
41531;BME280;58990;46.284;13.126;2022-11-20T16:08:31;98815.06;;;8.26;65.93
41531;BME280;58990;46.284;13.126;2022-11-20T16:10:56;98815.06;;;8.26;65.26
41531;BME280;58990;46.284;13.126;2022-11-20T16:13:21;98822.63;;;8.21;65.39
41531;BME280;58990;46.284;13.126;2022-11-20T16:16:18;98817.38;;;8.21;65.16
41531;BME280;58990;46.284;13.126;2022-11-20T16:18:44;98817.47;;;8.13;65.59
41531;BME280;58990;46.284;13.126;2022-11-20T16:21:13;98824.72;;;8.02;65.97
41531;BME280;58990;46.284;13.126;2022-11-20T16:23:38;98830.28;;;7.99;66.18
41531;BME280;58990;46.284;13.126;2022-11-20T16:26:12;98828.00;;;7.96;66.88
41531;BME280;58990;46.284;13.126;2022-11-20T16:28:38;98840.25;;;7.72;68.05
41531;BME280;58990;46.284;13.126;2022-11-20T16:31:12;98838.38;;;7.58;69.20
41531;BME280;58990;46.284;13.126;2022-11-20T16:33:38;98839.66;;;7.62;68.89
41531;BME280;58990;46.284;13.126;2022-11-20T16:36:12;98833.84;;;7.52;68.99
41531;BME280;58990;46.284;13.126;2022-11-20T16:38:37;98833.19;;;7.50;69.11
41531;BME280;58990;46.284;13.126;2022-11-20T16:41:03;98830.00;;;7.31;69.81
41531;BME280;58990;46.284;13.126;2022-11-20T16:43:29;98824.63;;;7.33;69.68
41531;BME280;58990;46.284;13.126;2022-11-20T16:45:55;98828.06;;;7.33;69.61
41531;BME280;58990;46.284;13.126;2022-11-20T16:48:20;98824.97;;;7.30;69.70
41531;BME280;58990;46.284;13.126;2022-11-20T16:53:24;98830.22;;;7.21;70.34
41531;BME280;58990;46.284;13.126;2022-11-20T16:55:49;98830.78;;;7.09;70.90
41531;BME280;58990;46.284;13.126;2022-11-20T16:58:15;98831.75;;;7.07;71.05
41531;BME280;58990;46.284;13.126;2022-11-20T17:00:41;98838.31;;;6.95;70.86
41531;BME280;58990;46.284;13.126;2022-11-20T17:03:06;98835.47;;;7.13;70.71
41531;BME280;58990;46.284;13.126;2022-11-20T17:05:32;98840.41;;;7.00;71.04
41531;BME280;58990;46.284;13.126;2022-11-20T17:07:59;98843.88;;;6.84;71.32